Wichita, KS

16:26 CDT le 16 septembre 2014 (GMT -0500)
Wichita Mid-Continent | Change Station
CLOSE
Current Station
Aéroport
Location: Wichita,
Altitude: 1332 ft
Stations météo à proximité
4.0 Earthquake: Guthrie, Oklahoma (1 day ago)  

Alt. 1332 ft 37.65 °N, 97.43 °W | Updated 33 minutes ago

Clear
Ciel dégagé
79 ° F
Paraît 79 ° F
N
7
Vent Variable Vent de Variable

Aujourd'hui
Haut(e) -- | Bas -- ° F
--% Risque de précip.
Hier
Haut(e) -- | Bas -- ° F
Precip. -- pouce
7:12 AM 7:35 PM
Dernier quartier, 42% visible
Pression 30.03 pouce
Visibilité 10.0 Miles terrestres
Nuages Ciel dégagé
Point de rosée 60 ° F
Humidité 52%
Précipitations 0.00 pouce
Profondeur de la couche neigeuse Non disponible.
UV 6 sur 12
Pollen 7.40 sur 12
Qualité de l'air Non disponible.
Flu Activity Non disponible.
METAR KICT 162053Z VRB06KT 10SM CLR 26/16 A3006 RMK AO2 SLP167 T02610156 58030

More Conditions Fewer Conditions

Pression 30.03 pouce
Visibilité 10.0 Miles terrestres
Nuages Ciel dégagé
Point de rosée 60 ° F
Humidité 52%
Précipitations 0.00 pouce
Profondeur de la couche neigeuse Non disponible.
UV 6 sur 12
Pollen 7.40 sur 12
Qualité de l'air Non disponible.
Flu Activity Non disponible.
METAR KICT 162053Z VRB06KT 10SM CLR 26/16 A3006 RMK AO2 SLP167 T02610156 58030

More Conditions Fewer Conditions

10-Day Weather Forecast

Almanac

Astronomie

Sep. 16, 2014 Lever Coucher
Temps réel 07:12 CDT 19:35 CDT
Crépuscule civil 06:46 CDT 20:02 CDT
Crépuscule nautique 06:15 CDT 20:32 CDT
Crépuscule astronomique 05:43 CDT 21:04 CDT
Lune 00:28 CDT 14:55 CDT
Durée de lumière visible 13h 15m
Longueur du jour
12h 23m
Tomorrow will be 2m 23s shorter.
Dernier quartier, 42% of the Moon is Illuminated
Aujourd'hui
Dernier quartier
Sep 24
Nouveau
Oct 1
Premier quartier
Oct 8
Pleine lune
Oct 15
Dernier quartier

Extrêmes aujourd'hui

State Highs State Lows

Community

WunderPhotos

Upload Photos

1,753,888 Photos téléchargées !

Nearby

Épaisseur de neige

Station Depth Altitude
Pas de nouvelles chutes de neige

Activité sismique

Ville Distance Mag. Time & Date
Yale, Oklahoma 109 Miles terrestres 2.5 09:31 CDT
2014-09-16
Yale, Oklahoma 109 Miles terrestres 2.8 08:49 CDT
2014-09-16
Stillwater, Oklahoma 105 Miles terrestres 2.5 08:38 CDT
2014-09-16
Guthrie, Oklahoma 126 Miles terrestres 2.7 16:00 CDT
2014-09-15
Minimum magnitude displayed is 2.5.

Températures des eaux côtières

Lieu Température
Aucun rapport de station

Stations météo à proximité